sensor_id;sensor_type;location;lat;lon;timestamp;P1;durP1;ratioP1;P2;durP2;ratioP2
13012;SDS011;22580;57.670;12.006;2024-03-02T00:00:51;0.80;;;0.80;;
13012;SDS011;22580;57.670;12.006;2024-03-02T00:03:22;0.80;;;0.80;;
13012;SDS011;22580;57.670;12.006;2024-03-02T00:05:50;1.10;;;1.00;;
13012;SDS011;22580;57.670;12.006;2024-03-02T00:08:23;1.40;;;1.20;;
13012;SDS011;22580;57.670;12.006;2024-03-02T00:10:52;1.20;;;1.10;;
13012;SDS011;22580;57.670;12.006;2024-03-02T00:13:23;1.30;;;1.20;;
13012;SDS011;22580;57.670;12.006;2024-03-02T00:15:51;0.90;;;0.90;;
13012;SDS011;22580;57.670;12.006;2024-03-02T00:18:19;0.87;;;0.87;;
13012;SDS011;22580;57.670;12.006;2024-03-02T00:20:49;0.90;;;0.90;;
13012;SDS011;22580;57.670;12.006;2024-03-02T00:23:22;1.17;;;0.97;;
13012;SDS011;22580;57.670;12.006;2024-03-02T00:25:50;0.97;;;0.90;;
13012;SDS011;22580;57.670;12.006;2024-03-02T00:28:20;1.00;;;1.00;;
13012;SDS011;22580;57.670;12.006;2024-03-02T00:30:52;0.80;;;0.80;;
13012;SDS011;22580;57.670;12.006;2024-03-02T00:33:23;1.00;;;1.00;;
13012;SDS011;22580;57.670;12.006;2024-03-02T00:35:54;0.80;;;0.80;;
13012;SDS011;22580;57.670;12.006;2024-03-02T00:38:22;0.73;;;0.73;;
13012;SDS011;22580;57.670;12.006;2024-03-02T00:40:49;0.60;;;0.60;;
13012;SDS011;22580;57.670;12.006;2024-03-02T00:46:23;0.80;;;0.80;;
13012;SDS011;22580;57.670;12.006;2024-03-02T00:48:52;1.00;;;0.90;;
13012;SDS011;22580;57.670;12.006;2024-03-02T00:51:23;0.70;;;0.70;;
13012;SDS011;22580;57.670;12.006;2024-03-02T00:53:53;0.60;;;0.60;;
13012;SDS011;22580;57.670;12.006;2024-03-02T00:56:22;0.70;;;0.70;;
13012;SDS011;22580;57.670;12.006;2024-03-02T00:58:50;0.70;;;0.70;;
13012;SDS011;22580;57.670;12.006;2024-03-02T01:01:17;0.53;;;0.53;;
13012;SDS011;22580;57.670;12.006;2024-03-02T01:03:45;0.80;;;0.80;;
13012;SDS011;22580;57.670;12.006;2024-03-02T01:06:12;0.63;;;0.63;;
13012;SDS011;22580;57.670;12.006;2024-03-02T01:08:41;0.67;;;0.67;;
13012;SDS011;22580;57.670;12.006;2024-03-02T01:11:09;0.60;;;0.60;;
13012;SDS011;22580;57.670;12.006;2024-03-02T01:13:36;0.80;;;0.80;;
13012;SDS011;22580;57.670;12.006;2024-03-02T01:16:03;1.07;;;0.93;;
13012;SDS011;22580;57.670;12.006;2024-03-02T01:18:30;1.33;;;1.23;;
13012;SDS011;22580;57.670;12.006;2024-03-02T01:20:57;0.73;;;0.73;;
13012;SDS011;22580;57.670;12.006;2024-03-02T01:23:24;0.80;;;0.80;;
13012;SDS011;22580;57.670;12.006;2024-03-02T01:25:54;1.20;;;1.10;;
13012;SDS011;22580;57.670;12.006;2024-03-02T01:28:21;1.07;;;0.97;;
13012;SDS011;22580;57.670;12.006;2024-03-02T01:30:48;1.10;;;1.00;;
13012;SDS011;22580;57.670;12.006;2024-03-02T01:33:16;1.03;;;0.90;;
13012;SDS011;22580;57.670;12.006;2024-03-02T01:35:44;1.20;;;1.10;;
13012;SDS011;22580;57.670;12.006;2024-03-02T01:38:12;0.80;;;0.80;;
13012;SDS011;22580;57.670;12.006;2024-03-02T01:40:39;1.77;;;1.40;;
13012;SDS011;22580;57.670;12.006;2024-03-02T01:43:08;1.10;;;1.00;;
13012;SDS011;22580;57.670;12.006;2024-03-02T01:45:35;0.90;;;0.90;;
13012;SDS011;22580;57.670;12.006;2024-03-02T01:48:02;1.40;;;1.30;;
13012;SDS011;22580;57.670;12.006;2024-03-02T01:50:31;1.10;;;1.00;;
13012;SDS011;22580;57.670;12.006;2024-03-02T01:52:59;1.30;;;1.20;;
13012;SDS011;22580;57.670;12.006;2024-03-02T01:55:27;1.03;;;1.00;;
13012;SDS011;22580;57.670;12.006;2024-03-02T01:57:55;1.80;;;1.23;;
13012;SDS011;22580;57.670;12.006;2024-03-02T02:00:24;1.33;;;1.23;;
13012;SDS011;22580;57.670;12.006;2024-03-02T02:02:51;1.13;;;1.03;;
13012;SDS011;22580;57.670;12.006;2024-03-02T02:05:19;1.00;;;1.00;;
13012;SDS011;22580;57.670;12.006;2024-03-02T02:07:46;0.80;;;0.80;;
13012;SDS011;22580;57.670;12.006;2024-03-02T02:10:13;0.83;;;0.80;;
13012;SDS011;22580;57.670;12.006;2024-03-02T02:12:40;0.90;;;0.90;;
13012;SDS011;22580;57.670;12.006;2024-03-02T02:15:25;0.60;;;0.60;;
13012;SDS011;22580;57.670;12.006;2024-03-02T02:17:53;0.63;;;0.63;;
13012;SDS011;22580;57.670;12.006;2024-03-02T02:20:21;0.50;;;0.50;;
13012;SDS011;22580;57.670;12.006;2024-03-02T02:22:56;0.50;;;0.50;;
13012;SDS011;22580;57.670;12.006;2024-03-02T02:25:24;0.40;;;0.40;;
13012;SDS011;22580;57.670;12.006;2024-03-02T02:27:51;0.73;;;0.73;;
13012;SDS011;22580;57.670;12.006;2024-03-02T02:30:19;0.60;;;0.60;;
13012;SDS011;22580;57.670;12.006;2024-03-02T02:32:47;0.40;;;0.40;;
13012;SDS011;22580;57.670;12.006;2024-03-02T02:35:14;0.70;;;0.70;;
13012;SDS011;22580;57.670;12.006;2024-03-02T02:37:41;0.77;;;0.77;;
13012;SDS011;22580;57.670;12.006;2024-03-02T02:40:12;0.83;;;0.60;;
13012;SDS011;22580;57.670;12.006;2024-03-02T02:42:39;0.80;;;0.80;;
13012;SDS011;22580;57.670;12.006;2024-03-02T02:45:06;0.70;;;0.70;;
13012;SDS011;22580;57.670;12.006;2024-03-02T02:47:34;0.97;;;0.90;;
13012;SDS011;22580;57.670;12.006;2024-03-02T02:50:02;1.20;;;1.10;;
13012;SDS011;22580;57.670;12.006;2024-03-02T02:52:32;0.80;;;0.80;;
13012;SDS011;22580;57.670;12.006;2024-03-02T02:55:01;0.67;;;0.67;;
13012;SDS011;22580;57.670;12.006;2024-03-02T02:57:31;0.80;;;0.80;;
13012;SDS011;22580;57.670;12.006;2024-03-02T03:00:01;0.80;;;0.80;;
13012;SDS011;22580;57.670;12.006;2024-03-02T03:02:35;1.10;;;0.90;;
13012;SDS011;22580;57.670;12.006;2024-03-02T03:05:03;0.70;;;0.70;;
13012;SDS011;22580;57.670;12.006;2024-03-02T03:07:31;0.60;;;0.60;;
13012;SDS011;22580;57.670;12.006;2024-03-02T03:09:58;0.70;;;0.70;;
13012;SDS011;22580;57.670;12.006;2024-03-02T03:12:25;0.70;;;0.70;;
13012;SDS011;22580;57.670;12.006;2024-03-02T03:14:56;0.73;;;0.60;;
13012;SDS011;22580;57.670;12.006;2024-03-02T03:17:23;0.60;;;0.60;;
13012;SDS011;22580;57.670;12.006;2024-03-02T03:19:50;0.60;;;0.60;;
13012;SDS011;22580;57.670;12.006;2024-03-02T03:22:17;0.50;;;0.50;;
13012;SDS011;22580;57.670;12.006;2024-03-02T03:24:44;0.63;;;0.63;;
13012;SDS011;22580;57.670;12.006;2024-03-02T03:27:11;0.60;;;0.60;;
13012;SDS011;22580;57.670;12.006;2024-03-02T03:29:39;0.80;;;0.80;;
13012;SDS011;22580;57.670;12.006;2024-03-02T03:32:09;0.57;;;0.57;;
13012;SDS011;22580;57.670;12.006;2024-03-02T03:34:36;0.70;;;0.70;;
13012;SDS011;22580;57.670;12.006;2024-03-02T03:37:03;1.53;;;1.20;;
13012;SDS011;22580;57.670;12.006;2024-03-02T03:39:30;0.60;;;0.60;;
13012;SDS011;22580;57.670;12.006;2024-03-02T03:41:57;0.57;;;0.57;;
13012;SDS011;22580;57.670;12.006;2024-03-02T03:44:24;0.40;;;0.40;;
13012;SDS011;22580;57.670;12.006;2024-03-02T03:46:51;0.80;;;0.80;;
13012;SDS011;22580;57.670;12.006;2024-03-02T03:49:20;0.80;;;0.80;;
13012;SDS011;22580;57.670;12.006;2024-03-02T03:51:47;0.57;;;0.57;;
13012;SDS011;22580;57.670;12.006;2024-03-02T03:54:14;0.70;;;0.70;;
13012;SDS011;22580;57.670;12.006;2024-03-02T03:56:44;1.10;;;1.07;;
13012;SDS011;22580;57.670;12.006;2024-03-02T03:59:10;1.33;;;1.23;;
13012;SDS011;22580;57.670;12.006;2024-03-02T04:01:38;1.93;;;1.47;;
13012;SDS011;22580;57.670;12.006;2024-03-02T04:04:05;1.50;;;1.40;;
13012;SDS011;22580;57.670;12.006;2024-03-02T04:06:36;1.27;;;1.13;;
13012;SDS011;22580;57.670;12.006;2024-03-02T04:09:03;1.20;;;1.10;;
13012;SDS011;22580;57.670;12.006;2024-03-02T04:11:30;1.10;;;1.10;;
13012;SDS011;22580;57.670;12.006;2024-03-02T04:13:57;0.80;;;0.80;;
13012;SDS011;22580;57.670;12.006;2024-03-02T04:16:24;1.20;;;1.10;;
13012;SDS011;22580;57.670;12.006;2024-03-02T04:18:51;0.90;;;0.80;;
13012;SDS011;22580;57.670;12.006;2024-03-02T04:21:20;0.60;;;0.60;;
13012;SDS011;22580;57.670;12.006;2024-03-02T04:23:49;0.60;;;0.60;;
13012;SDS011;22580;57.670;12.006;2024-03-02T04:26:16;0.93;;;0.87;;
13012;SDS011;22580;57.670;12.006;2024-03-02T04:28:47;0.70;;;0.70;;
13012;SDS011;22580;57.670;12.006;2024-03-02T04:31:14;0.50;;;0.50;;
13012;SDS011;22580;57.670;12.006;2024-03-02T04:33:41;0.57;;;0.57;;
13012;SDS011;22580;57.670;12.006;2024-03-02T04:36:08;0.60;;;0.60;;
13012;SDS011;22580;57.670;12.006;2024-03-02T04:38:36;0.60;;;0.60;;
13012;SDS011;22580;57.670;12.006;2024-03-02T04:41:05;0.60;;;0.60;;
13012;SDS011;22580;57.670;12.006;2024-03-02T04:43:33;0.60;;;0.60;;
13012;SDS011;22580;57.670;12.006;2024-03-02T04:46:00;0.70;;;0.70;;
13012;SDS011;22580;57.670;12.006;2024-03-02T04:48:28;0.77;;;0.77;;
13012;SDS011;22580;57.670;12.006;2024-03-02T04:50:55;1.50;;;1.07;;
13012;SDS011;22580;57.670;12.006;2024-03-02T04:53:21;0.90;;;0.90;;
13012;SDS011;22580;57.670;12.006;2024-03-02T04:55:48;0.60;;;0.60;;
13012;SDS011;22580;57.670;12.006;2024-03-02T04:58:33;1.20;;;1.10;;
13012;SDS011;22580;57.670;12.006;2024-03-02T05:01:01;1.03;;;0.90;;
13012;SDS011;22580;57.670;12.006;2024-03-02T05:03:29;0.70;;;0.70;;
13012;SDS011;22580;57.670;12.006;2024-03-02T05:05:55;0.40;;;0.40;;
13012;SDS011;22580;57.670;12.006;2024-03-02T05:08:22;0.70;;;0.70;;
13012;SDS011;22580;57.670;12.006;2024-03-02T05:10:49;0.87;;;0.87;;
13012;SDS011;22580;57.670;12.006;2024-03-02T05:13:16;1.93;;;1.70;;
13012;SDS011;22580;57.670;12.006;2024-03-02T05:15:44;1.60;;;1.50;;
13012;SDS011;22580;57.670;12.006;2024-03-02T05:18:11;1.40;;;1.30;;
13012;SDS011;22580;57.670;12.006;2024-03-02T05:20:38;1.43;;;1.33;;
13012;SDS011;22580;57.670;12.006;2024-03-02T05:23:05;1.33;;;1.23;;
13012;SDS011;22580;57.670;12.006;2024-03-02T05:25:32;1.40;;;1.30;;
13012;SDS011;22580;57.670;12.006;2024-03-02T05:28:00;1.10;;;1.00;;
13012;SDS011;22580;57.670;12.006;2024-03-02T05:30:27;1.53;;;1.00;;
13012;SDS011;22580;57.670;12.006;2024-03-02T05:32:55;1.20;;;1.10;;
13012;SDS011;22580;57.670;12.006;2024-03-02T05:35:23;0.80;;;0.80;;
13012;SDS011;22580;57.670;12.006;2024-03-02T05:37:50;0.70;;;0.70;;
13012;SDS011;22580;57.670;12.006;2024-03-02T05:40:17;0.50;;;0.50;;
13012;SDS011;22580;57.670;12.006;2024-03-02T05:42:44;1.00;;;0.90;;
13012;SDS011;22580;57.670;12.006;2024-03-02T05:45:11;0.97;;;0.80;;
13012;SDS011;22580;57.670;12.006;2024-03-02T05:47:38;0.93;;;0.93;;
13012;SDS011;22580;57.670;12.006;2024-03-02T05:50:07;1.23;;;1.13;;
13012;SDS011;22580;57.670;12.006;2024-03-02T05:52:34;1.20;;;1.10;;
13012;SDS011;22580;57.670;12.006;2024-03-02T05:55:01;0.80;;;0.80;;
13012;SDS011;22580;57.670;12.006;2024-03-02T05:57:28;0.97;;;0.97;;
13012;SDS011;22580;57.670;12.006;2024-03-02T06:00:14;0.97;;;0.90;;
13012;SDS011;22580;57.670;12.006;2024-03-02T06:02:42;1.40;;;1.30;;
13012;SDS011;22580;57.670;12.006;2024-03-02T06:05:11;1.20;;;1.10;;
13012;SDS011;22580;57.670;12.006;2024-03-02T06:07:38;1.13;;;1.00;;
13012;SDS011;22580;57.670;12.006;2024-03-02T06:10:05;0.90;;;0.90;;
13012;SDS011;22580;57.670;12.006;2024-03-02T06:12:34;1.37;;;1.10;;
13012;SDS011;22580;57.670;12.006;2024-03-02T06:15:00;1.07;;;1.00;;
13012;SDS011;22580;57.670;12.006;2024-03-02T06:17:29;0.87;;;0.87;;
13012;SDS011;22580;57.670;12.006;2024-03-02T06:19:55;0.90;;;0.90;;
13012;SDS011;22580;57.670;12.006;2024-03-02T06:22:24;1.10;;;1.10;;
13012;SDS011;22580;57.670;12.006;2024-03-02T06:24:51;0.90;;;0.90;;
13012;SDS011;22580;57.670;12.006;2024-03-02T06:27:18;1.00;;;1.00;;
13012;SDS011;22580;57.670;12.006;2024-03-02T06:29:45;1.00;;;0.90;;
13012;SDS011;22580;57.670;12.006;2024-03-02T06:32:13;0.90;;;0.80;;
13012;SDS011;22580;57.670;12.006;2024-03-02T06:34:41;0.93;;;0.93;;
13012;SDS011;22580;57.670;12.006;2024-03-02T06:37:08;1.47;;;1.20;;
13012;SDS011;22580;57.670;12.006;2024-03-02T06:39:36;1.50;;;1.40;;
13012;SDS011;22580;57.670;12.006;2024-03-02T06:42:04;1.20;;;1.10;;
13012;SDS011;22580;57.670;12.006;2024-03-02T06:44:30;1.10;;;1.00;;
13012;SDS011;22580;57.670;12.006;2024-03-02T06:46:59;1.10;;;1.00;;
13012;SDS011;22580;57.670;12.006;2024-03-02T06:49:26;1.17;;;1.10;;
13012;SDS011;22580;57.670;12.006;2024-03-02T06:51:53;0.90;;;0.90;;
13012;SDS011;22580;57.670;12.006;2024-03-02T06:54:20;0.70;;;0.70;;
13012;SDS011;22580;57.670;12.006;2024-03-02T06:56:49;0.83;;;0.83;;
13012;SDS011;22580;57.670;12.006;2024-03-02T06:59:16;0.80;;;0.80;;
13012;SDS011;22580;57.670;12.006;2024-03-02T07:01:42;0.90;;;0.90;;
13012;SDS011;22580;57.670;12.006;2024-03-02T07:04:09;0.80;;;0.80;;
13012;SDS011;22580;57.670;12.006;2024-03-02T07:06:36;0.70;;;0.70;;
13012;SDS011;22580;57.670;12.006;2024-03-02T07:09:04;1.13;;;1.03;;
13012;SDS011;22580;57.670;12.006;2024-03-02T07:11:32;1.10;;;1.00;;
13012;SDS011;22580;57.670;12.006;2024-03-02T07:14:01;1.83;;;1.57;;
13012;SDS011;22580;57.670;12.006;2024-03-02T07:16:28;5.53;;;3.80;;
13012;SDS011;22580;57.670;12.006;2024-03-02T07:18:58;3.67;;;3.00;;
13012;SDS011;22580;57.670;12.006;2024-03-02T07:21:26;2.60;;;2.40;;
13012;SDS011;22580;57.670;12.006;2024-03-02T07:23:54;2.63;;;2.20;;
13012;SDS011;22580;57.670;12.006;2024-03-02T07:26:21;2.47;;;2.20;;
13012;SDS011;22580;57.670;12.006;2024-03-02T07:28:48;2.17;;;1.90;;
13012;SDS011;22580;57.670;12.006;2024-03-02T07:31:17;1.90;;;1.70;;
13012;SDS011;22580;57.670;12.006;2024-03-02T07:33:44;1.53;;;1.43;;
13012;SDS011;22580;57.670;12.006;2024-03-02T07:36:11;0.90;;;0.90;;
13012;SDS011;22580;57.670;12.006;2024-03-02T07:38:38;0.97;;;0.97;;
13012;SDS011;22580;57.670;12.006;2024-03-02T07:41:06;0.97;;;0.97;;
13012;SDS011;22580;57.670;12.006;2024-03-02T07:43:33;0.80;;;0.73;;
13012;SDS011;22580;57.670;12.006;2024-03-02T07:46:01;0.97;;;0.90;;
13012;SDS011;22580;57.670;12.006;2024-03-02T07:48:30;0.80;;;0.80;;
13012;SDS011;22580;57.670;12.006;2024-03-02T07:50:59;1.03;;;0.90;;
13012;SDS011;22580;57.670;12.006;2024-03-02T07:53:27;1.20;;;1.10;;
13012;SDS011;22580;57.670;12.006;2024-03-02T07:55:54;0.90;;;0.90;;
13012;SDS011;22580;57.670;12.006;2024-03-02T07:58:27;0.90;;;0.80;;
13012;SDS011;22580;57.670;12.006;2024-03-02T08:00:54;1.30;;;0.90;;
13012;SDS011;22580;57.670;12.006;2024-03-02T08:03:21;0.70;;;0.70;;
13012;SDS011;22580;57.670;12.006;2024-03-02T08:05:50;1.00;;;0.90;;
13012;SDS011;22580;57.670;12.006;2024-03-02T08:08:16;0.93;;;0.83;;
13012;SDS011;22580;57.670;12.006;2024-03-02T08:10:43;1.03;;;1.00;;
13012;SDS011;22580;57.670;12.006;2024-03-02T08:13:10;0.70;;;0.60;;
13012;SDS011;22580;57.670;12.006;2024-03-02T08:15:38;2.03;;;1.83;;
13012;SDS011;22580;57.670;12.006;2024-03-02T08:18:04;4.47;;;3.43;;
13012;SDS011;22580;57.670;12.006;2024-03-02T08:20:33;3.13;;;2.47;;
13012;SDS011;22580;57.670;12.006;2024-03-02T08:23:01;5.47;;;3.93;;
13012;SDS011;22580;57.670;12.006;2024-03-02T08:25:28;3.63;;;3.27;;
13012;SDS011;22580;57.670;12.006;2024-03-02T08:27:55;3.43;;;2.67;;
13012;SDS011;22580;57.670;12.006;2024-03-02T08:30:23;3.00;;;2.50;;
13012;SDS011;22580;57.670;12.006;2024-03-02T08:32:50;2.47;;;2.27;;
13012;SDS011;22580;57.670;12.006;2024-03-02T08:35:17;2.53;;;2.17;;
13012;SDS011;22580;57.670;12.006;2024-03-02T08:37:44;1.83;;;1.70;;
13012;SDS011;22580;57.670;12.006;2024-03-02T08:40:13;1.60;;;1.50;;
13012;SDS011;22580;57.670;12.006;2024-03-02T08:42:41;2.10;;;2.00;;
13012;SDS011;22580;57.670;12.006;2024-03-02T08:45:09;1.67;;;1.57;;
13012;SDS011;22580;57.670;12.006;2024-03-02T08:47:36;2.90;;;2.33;;
13012;SDS011;22580;57.670;12.006;2024-03-02T08:50:03;2.47;;;2.27;;
13012;SDS011;22580;57.670;12.006;2024-03-02T08:52:32;1.93;;;1.80;;
13012;SDS011;22580;57.670;12.006;2024-03-02T08:54:59;1.83;;;1.73;;
13012;SDS011;22580;57.670;12.006;2024-03-02T08:57:29;1.80;;;1.70;;
13012;SDS011;22580;57.670;12.006;2024-03-02T08:59:56;1.70;;;1.60;;
13012;SDS011;22580;57.670;12.006;2024-03-02T09:02:37;2.57;;;2.37;;
13012;SDS011;22580;57.670;12.006;2024-03-02T09:05:05;3.73;;;2.87;;
13012;SDS011;22580;57.670;12.006;2024-03-02T09:07:33;2.07;;;1.93;;
13012;SDS011;22580;57.670;12.006;2024-03-02T09:10:01;1.63;;;1.53;;
13012;SDS011;22580;57.670;12.006;2024-03-02T09:12:27;1.67;;;1.57;;
13012;SDS011;22580;57.670;12.006;2024-03-02T09:14:56;1.60;;;1.37;;
13012;SDS011;22580;57.670;12.006;2024-03-02T09:17:23;1.57;;;1.47;;
13012;SDS011;22580;57.670;12.006;2024-03-02T09:19:51;1.37;;;1.30;;
13012;SDS011;22580;57.670;12.006;2024-03-02T09:22:19;1.40;;;1.30;;
13012;SDS011;22580;57.670;12.006;2024-03-02T09:24:46;1.63;;;1.50;;
13012;SDS011;22580;57.670;12.006;2024-03-02T09:27:13;3.47;;;2.80;;
13012;SDS011;22580;57.670;12.006;2024-03-02T09:29:42;3.47;;;3.07;;
13012;SDS011;22580;57.670;12.006;2024-03-02T09:32:12;2.83;;;2.63;;
13012;SDS011;22580;57.670;12.006;2024-03-02T09:34:40;2.50;;;2.30;;
13012;SDS011;22580;57.670;12.006;2024-03-02T09:37:08;2.40;;;2.20;;
13012;SDS011;22580;57.670;12.006;2024-03-02T09:39:36;2.40;;;2.20;;
13012;SDS011;22580;57.670;12.006;2024-03-02T09:42:04;2.43;;;2.23;;
13012;SDS011;22580;57.670;12.006;2024-03-02T09:44:32;3.50;;;3.20;;
13012;SDS011;22580;57.670;12.006;2024-03-02T09:47:04;3.67;;;2.50;;
13012;SDS011;22580;57.670;12.006;2024-03-02T09:49:33;3.33;;;3.00;;
13012;SDS011;22580;57.670;12.006;2024-03-02T09:52:01;4.60;;;3.80;;
13012;SDS011;22580;57.670;12.006;2024-03-02T09:54:31;3.30;;;2.83;;
13012;SDS011;22580;57.670;12.006;2024-03-02T09:56:58;3.60;;;3.23;;
13012;SDS011;22580;57.670;12.006;2024-03-02T09:59:26;2.70;;;2.50;;
13012;SDS011;22580;57.670;12.006;2024-03-02T10:01:57;2.50;;;2.10;;
13012;SDS011;22580;57.670;12.006;2024-03-02T10:04:27;2.90;;;2.70;;
13012;SDS011;22580;57.670;12.006;2024-03-02T10:07:10;2.60;;;2.40;;
13012;SDS011;22580;57.670;12.006;2024-03-02T10:09:41;2.70;;;2.50;;
13012;SDS011;22580;57.670;12.006;2024-03-02T10:12:10;3.97;;;3.37;;
13012;SDS011;22580;57.670;12.006;2024-03-02T10:14:44;2.60;;;2.40;;
13012;SDS011;22580;57.670;12.006;2024-03-02T10:17:25;2.50;;;2.30;;
13012;SDS011;22580;57.670;12.006;2024-03-02T10:20:07;2.30;;;2.10;;
13012;SDS011;22580;57.670;12.006;2024-03-02T10:22:50;2.33;;;2.13;;
13012;SDS011;22580;57.670;12.006;2024-03-02T10:25:36;2.30;;;2.10;;
13012;SDS011;22580;57.670;12.006;2024-03-02T10:28:13;2.30;;;2.10;;
13012;SDS011;22580;57.670;12.006;2024-03-02T10:30:44;1.83;;;1.73;;
13012;SDS011;22580;57.670;12.006;2024-03-02T10:33:27;2.27;;;2.07;;
13012;SDS011;22580;57.670;12.006;2024-03-02T10:35:56;2.37;;;2.17;;
13012;SDS011;22580;57.670;12.006;2024-03-02T10:38:24;2.10;;;2.00;;
13012;SDS011;22580;57.670;12.006;2024-03-02T10:40:51;2.87;;;2.30;;
13012;SDS011;22580;57.670;12.006;2024-03-02T10:43:20;2.20;;;2.00;;
13012;SDS011;22580;57.670;12.006;2024-03-02T10:45:48;2.90;;;2.60;;
13012;SDS011;22580;57.670;12.006;2024-03-02T10:48:16;3.20;;;2.90;;
13012;SDS011;22580;57.670;12.006;2024-03-02T10:57:04;3.17;;;2.83;;
13012;SDS011;22580;57.670;12.006;2024-03-02T10:59:43;3.20;;;2.90;;
13012;SDS011;22580;57.670;12.006;2024-03-02T11:02:18;4.07;;;3.73;;
13012;SDS011;22580;57.670;12.006;2024-03-02T11:04:56;4.63;;;3.97;;
13012;SDS011;22580;57.670;12.006;2024-03-02T11:07:27;4.17;;;3.80;;
13012;SDS011;22580;57.670;12.006;2024-03-02T11:09:56;3.73;;;3.10;;
13012;SDS011;22580;57.670;12.006;2024-03-02T11:12:27;3.27;;;2.97;;
13012;SDS011;22580;57.670;12.006;2024-03-02T11:14:56;3.40;;;3.10;;
13012;SDS011;22580;57.670;12.006;2024-03-02T11:17:23;2.90;;;2.70;;
13012;SDS011;22580;57.670;12.006;2024-03-02T11:19:53;3.20;;;2.83;;
13012;SDS011;22580;57.670;12.006;2024-03-02T11:22:21;3.70;;;3.40;;
13012;SDS011;22580;57.670;12.006;2024-03-02T11:24:48;2.60;;;2.40;;
13012;SDS011;22580;57.670;12.006;2024-03-02T11:27:20;2.17;;;2.07;;
13012;SDS011;22580;57.670;12.006;2024-03-02T11:33:15;2.30;;;2.10;;
13012;SDS011;22580;57.670;12.006;2024-03-02T11:35:52;2.20;;;2.10;;
13012;SDS011;22580;57.670;12.006;2024-03-02T11:38:19;2.00;;;1.90;;
13012;SDS011;22580;57.670;12.006;2024-03-02T11:40:46;2.70;;;2.43;;
13012;SDS011;22580;57.670;12.006;2024-03-02T11:43:15;1.80;;;1.70;;
13012;SDS011;22580;57.670;12.006;2024-03-02T11:45:43;2.43;;;2.23;;
13012;SDS011;22580;57.670;12.006;2024-03-02T11:48:11;2.00;;;1.90;;
13012;SDS011;22580;57.670;12.006;2024-03-02T11:50:40;2.53;;;2.33;;
13012;SDS011;22580;57.670;12.006;2024-03-02T11:53:09;3.03;;;2.73;;
13012;SDS011;22580;57.670;12.006;2024-03-02T11:55:39;2.30;;;2.20;;
13012;SDS011;22580;57.670;12.006;2024-03-02T11:58:09;2.40;;;2.13;;
13012;SDS011;22580;57.670;12.006;2024-03-02T12:00:37;2.50;;;2.30;;
13012;SDS011;22580;57.670;12.006;2024-03-02T12:03:05;2.30;;;2.10;;
13012;SDS011;22580;57.670;12.006;2024-03-02T12:05:33;2.10;;;2.00;;
13012;SDS011;22580;57.670;12.006;2024-03-02T12:08:02;1.77;;;1.67;;
13012;SDS011;22580;57.670;12.006;2024-03-02T12:10:31;1.77;;;1.67;;
13012;SDS011;22580;57.670;12.006;2024-03-02T12:13:00;1.63;;;1.53;;
13012;SDS011;22580;57.670;12.006;2024-03-02T12:15:28;1.60;;;1.50;;
13012;SDS011;22580;57.670;12.006;2024-03-02T12:17:58;1.47;;;1.37;;
13012;SDS011;22580;57.670;12.006;2024-03-02T12:20:28;1.47;;;1.37;;
13012;SDS011;22580;57.670;12.006;2024-03-02T12:22:57;1.47;;;1.37;;
13012;SDS011;22580;57.670;12.006;2024-03-02T12:25:25;1.30;;;1.20;;
13012;SDS011;22580;57.670;12.006;2024-03-02T12:27:53;1.30;;;1.27;;
13012;SDS011;22580;57.670;12.006;2024-03-02T12:30:21;1.47;;;1.37;;
13012;SDS011;22580;57.670;12.006;2024-03-02T12:32:50;1.10;;;1.10;;
13012;SDS011;22580;57.670;12.006;2024-03-02T12:35:18;1.27;;;1.20;;
13012;SDS011;22580;57.670;12.006;2024-03-02T12:37:46;1.20;;;1.20;;
13012;SDS011;22580;57.670;12.006;2024-03-02T12:40:15;1.30;;;1.20;;
13012;SDS011;22580;57.670;12.006;2024-03-02T12:42:43;0.93;;;0.90;;
13012;SDS011;22580;57.670;12.006;2024-03-02T12:45:11;1.30;;;1.30;;
13012;SDS011;22580;57.670;12.006;2024-03-02T12:47:39;1.30;;;1.30;;
13012;SDS011;22580;57.670;12.006;2024-03-02T12:50:07;1.40;;;1.30;;
13012;SDS011;22580;57.670;12.006;2024-03-02T12:52:36;1.40;;;1.30;;
13012;SDS011;22580;57.670;12.006;2024-03-02T12:55:04;1.40;;;1.30;;
13012;SDS011;22580;57.670;12.006;2024-03-02T12:57:32;1.60;;;1.50;;
13012;SDS011;22580;57.670;12.006;2024-03-02T12:59:59;1.43;;;1.33;;
13012;SDS011;22580;57.670;12.006;2024-03-02T13:02:27;1.87;;;1.77;;
13012;SDS011;22580;57.670;12.006;2024-03-02T13:04:55;1.60;;;1.50;;
13012;SDS011;22580;57.670;12.006;2024-03-02T13:07:24;1.43;;;1.33;;
13012;SDS011;22580;57.670;12.006;2024-03-02T13:09:53;1.80;;;1.70;;
13012;SDS011;22580;57.670;12.006;2024-03-02T13:12:21;1.60;;;1.50;;
13012;SDS011;22580;57.670;12.006;2024-03-02T13:14:49;1.60;;;1.50;;
13012;SDS011;22580;57.670;12.006;2024-03-02T13:17:17;1.40;;;1.30;;
13012;SDS011;22580;57.670;12.006;2024-03-02T13:19:51;1.40;;;1.30;;
13012;SDS011;22580;57.670;12.006;2024-03-02T13:22:19;1.17;;;1.17;;
13012;SDS011;22580;57.670;12.006;2024-03-02T13:24:46;0.80;;;0.80;;
13012;SDS011;22580;57.670;12.006;2024-03-02T13:27:15;1.27;;;1.20;;
13012;SDS011;22580;57.670;12.006;2024-03-02T13:29:44;0.80;;;0.80;;
13012;SDS011;22580;57.670;12.006;2024-03-02T13:32:11;0.67;;;0.67;;
13012;SDS011;22580;57.670;12.006;2024-03-02T13:34:38;1.10;;;1.10;;
13012;SDS011;22580;57.670;12.006;2024-03-02T13:37:05;0.90;;;0.90;;
13012;SDS011;22580;57.670;12.006;2024-03-02T13:39:32;0.90;;;0.90;;
13012;SDS011;22580;57.670;12.006;2024-03-02T13:42:05;0.80;;;0.80;;
13012;SDS011;22580;57.670;12.006;2024-03-02T13:44:35;1.07;;;1.07;;
13012;SDS011;22580;57.670;12.006;2024-03-02T13:47:02;0.80;;;0.80;;
13012;SDS011;22580;57.670;12.006;2024-03-02T13:49:30;0.87;;;0.87;;
13012;SDS011;22580;57.670;12.006;2024-03-02T13:52:01;0.80;;;0.80;;
13012;SDS011;22580;57.670;12.006;2024-03-02T13:54:36;0.80;;;0.80;;
13012;SDS011;22580;57.670;12.006;2024-03-02T13:57:04;0.60;;;0.60;;
13012;SDS011;22580;57.670;12.006;2024-03-02T13:59:32;0.60;;;0.60;;
13012;SDS011;22580;57.670;12.006;2024-03-02T14:02:00;0.60;;;0.60;;
13012;SDS011;22580;57.670;12.006;2024-03-02T14:04:29;0.80;;;0.80;;
13012;SDS011;22580;57.670;12.006;2024-03-02T14:06:56;0.73;;;0.73;;
13012;SDS011;22580;57.670;12.006;2024-03-02T14:09:23;0.67;;;0.67;;
13012;SDS011;22580;57.670;12.006;2024-03-02T14:11:50;0.67;;;0.67;;
13012;SDS011;22580;57.670;12.006;2024-03-02T14:14:18;0.57;;;0.57;;
13012;SDS011;22580;57.670;12.006;2024-03-02T14:16:45;0.70;;;0.70;;
13012;SDS011;22580;57.670;12.006;2024-03-02T14:19:14;0.40;;;0.40;;
13012;SDS011;22580;57.670;12.006;2024-03-02T14:21:41;0.50;;;0.50;;
13012;SDS011;22580;57.670;12.006;2024-03-02T14:24:08;0.60;;;0.60;;
13012;SDS011;22580;57.670;12.006;2024-03-02T14:26:35;0.40;;;0.40;;
13012;SDS011;22580;57.670;12.006;2024-03-02T14:29:03;0.47;;;0.47;;
13012;SDS011;22580;57.670;12.006;2024-03-02T14:31:30;0.50;;;0.50;;
13012;SDS011;22580;57.670;12.006;2024-03-02T14:33:57;0.50;;;0.50;;
13012;SDS011;22580;57.670;12.006;2024-03-02T14:36:26;0.50;;;0.50;;
13012;SDS011;22580;57.670;12.006;2024-03-02T14:38:54;0.50;;;0.50;;
13012;SDS011;22580;57.670;12.006;2024-03-02T14:41:21;0.70;;;0.70;;
13012;SDS011;22580;57.670;12.006;2024-03-02T14:43:50;0.63;;;0.63;;
13012;SDS011;22580;57.670;12.006;2024-03-02T14:46:18;0.70;;;0.70;;
13012;SDS011;22580;57.670;12.006;2024-03-02T14:48:45;0.70;;;0.70;;
13012;SDS011;22580;57.670;12.006;2024-03-02T14:51:13;0.67;;;0.67;;
13012;SDS011;22580;57.670;12.006;2024-03-02T14:53:41;0.50;;;0.50;;